createdAt,value
2022-12-18T00:00:24.417Z,14.37
2022-12-18T00:05:26.425Z,14.52
2022-12-18T00:10:29.573Z,13.48
2022-12-18T00:15:31.570Z,13.33
2022-12-18T00:20:38.191Z,13.57
2022-12-18T00:25:40.241Z,12.80
2022-12-18T00:30:42.768Z,13.73
2022-12-18T00:35:44.779Z,12.20
2022-12-18T00:40:46.782Z,14.10
2022-12-18T00:45:48.859Z,13.37
2022-12-18T00:50:51.910Z,14.33
2022-12-18T00:55:53.926Z,13.70
2022-12-18T01:00:55.967Z,13.00
2022-12-18T01:05:57.982Z,12.67
2022-12-18T01:11:00.015Z,12.80
2022-12-18T01:16:02.274Z,13.88
2022-12-18T01:21:13.768Z,13.77
2022-12-18T01:26:17.271Z,14.63
2022-12-18T01:31:23.451Z,13.95
2022-12-18T01:36:29.321Z,13.17
2022-12-18T01:41:52.399Z,13.97
2022-12-18T01:46:54.426Z,14.07
2022-12-18T01:51:56.502Z,12.35
2022-12-18T01:56:58.529Z,14.63
2022-12-18T02:02:01.615Z,13.35
2022-12-18T02:07:06.771Z,13.18
2022-12-18T02:12:18.702Z,13.23
2022-12-18T02:17:24.614Z,13.48
2022-12-18T02:22:35.498Z,13.77
2022-12-18T02:27:39.167Z,13.67
2022-12-18T02:32:46.148Z,14.33
2022-12-18T02:37:48.554Z,13.80
2022-12-18T02:42:50.727Z,13.88
2022-12-18T02:47:52.818Z,13.87
2022-12-18T02:53:20.754Z,13.85
2022-12-18T02:58:25.750Z,15.35
2022-12-18T03:03:45.825Z,14.90
2022-12-18T03:08:51.945Z,14.57
2022-12-18T03:13:58.240Z,15.02
2022-12-18T03:19:04.655Z,13.70
2022-12-18T03:24:10.337Z,14.83
2022-12-18T03:29:45.358Z,15.48
2022-12-18T03:34:51.879Z,14.45
2022-12-18T03:39:54.076Z,13.90
2022-12-18T03:45:09.010Z,13.50
2022-12-18T03:50:20.960Z,13.95
2022-12-18T03:55:26.399Z,13.87
2022-12-18T04:00:30.410Z,13.75
2022-12-18T04:05:36.390Z,14.50
2022-12-18T04:10:38.484Z,13.27
2022-12-18T04:15:41.273Z,14.23
2022-12-18T04:20:43.297Z,13.88
2022-12-18T04:25:45.295Z,13.65
2022-12-18T04:30:47.409Z,13.63
2022-12-18T04:35:49.928Z,12.60
2022-12-18T04:40:51.928Z,13.10
2022-12-18T04:45:53.948Z,13.23
2022-12-18T04:50:56.012Z,14.02
2022-12-18T04:56:13.266Z,14.43
2022-12-18T05:01:17.595Z,13.43
2022-12-18T05:06:19.789Z,13.57
2022-12-18T05:11:21.801Z,13.82
2022-12-18T05:16:24.062Z,14.70
2022-12-18T05:21:26.326Z,14.27
2022-12-18T05:26:28.334Z,14.32
2022-12-18T05:31:34.602Z,13.30
2022-12-18T05:36:39.634Z,13.37
2022-12-18T05:41:41.755Z,13.77
2022-12-18T05:46:44.589Z,14.10
2022-12-18T05:51:46.985Z,13.67
2022-12-18T05:56:49.175Z,13.50
2022-12-18T06:01:51.378Z,12.63
2022-12-18T06:06:53.470Z,13.18
2022-12-18T06:11:55.469Z,14.60
2022-12-18T06:16:57.597Z,13.32
2022-12-18T06:21:59.969Z,14.57
2022-12-18T06:27:01.947Z,13.03
2022-12-18T06:32:04.146Z,13.57
2022-12-18T06:37:06.177Z,13.35
2022-12-18T06:42:08.220Z,13.53
2022-12-18T06:47:10.578Z,13.83
2022-12-18T06:52:12.825Z,13.65
2022-12-18T06:57:14.886Z,15.40
2022-12-18T07:02:17.154Z,14.10
2022-12-18T07:07:19.345Z,13.32
2022-12-18T07:12:21.349Z,14.27
2022-12-18T07:17:23.393Z,14.33
2022-12-18T07:22:26.783Z,13.45
2022-12-18T07:27:28.835Z,14.50
2022-12-18T07:32:31.571Z,14.90
2022-12-18T07:37:33.975Z,14.83
2022-12-18T07:42:37.084Z,14.68
2022-12-18T07:47:39.205Z,13.88
2022-12-18T07:52:41.242Z,14.67
2022-12-18T07:57:53.301Z,14.50
2022-12-18T08:02:57.886Z,15.88
2022-12-18T08:07:59.941Z,14.07
2022-12-18T08:13:05.148Z,14.30
2022-12-18T08:18:12.704Z,14.35
2022-12-18T08:23:16.240Z,13.67
2022-12-18T08:28:18.594Z,13.60
2022-12-18T08:33:20.681Z,14.18
2022-12-18T08:38:24.262Z,14.32
2022-12-18T08:43:44.561Z,15.63
2022-12-18T08:48:47.346Z,14.90
2022-12-18T08:53:49.430Z,13.95
2022-12-18T08:58:55.571Z,15.37
2022-12-18T09:03:57.610Z,15.07
2022-12-18T09:08:59.759Z,16.08
2022-12-18T09:14:02.976Z,16.37
2022-12-18T09:19:05.776Z,16.57
2022-12-18T09:24:14.387Z,16.30
2022-12-18T09:29:18.756Z,16.45
2022-12-18T09:34:22.892Z,16.43
2022-12-18T09:39:25.134Z,16.58
2022-12-18T09:44:47.051Z,15.70
2022-12-18T09:49:53.826Z,15.80
2022-12-18T09:55:05.275Z,16.60
2022-12-18T10:00:20.046Z,16.67
2022-12-18T10:05:36.857Z,16.20
2022-12-18T10:10:49.636Z,15.70
2022-12-18T10:16:11.711Z,15.90
2022-12-18T10:21:20.837Z,15.63
2022-12-18T10:26:23.050Z,15.40
2022-12-18T10:31:25.737Z,16.52
2022-12-18T10:36:27.917Z,15.52
2022-12-18T10:41:31.860Z,16.90
2022-12-18T10:46:33.993Z,17.83
2022-12-18T10:51:38.577Z,16.10
2022-12-18T10:56:41.112Z,18.20
2022-12-18T11:01:58.203Z,18.13
2022-12-18T11:07:03.911Z,18.08
2022-12-18T11:12:29.434Z,17.60
2022-12-18T11:17:36.725Z,16.73
2022-12-18T11:22:39.475Z,17.73
2022-12-18T11:27:41.722Z,16.25
2022-12-18T11:32:48.205Z,15.87
2022-12-18T11:38:00.450Z,16.05
2022-12-18T11:43:17.948Z,14.60
2022-12-18T11:49:12.696Z,15.27
2022-12-18T11:54:17.071Z,14.63
2022-12-18T11:59:41.243Z,15.35
2022-12-18T12:04:46.990Z,13.88
2022-12-18T12:10:13.185Z,16.47
2022-12-18T12:15:37.262Z,15.95
2022-12-18T12:20:47.033Z,14.48
2022-12-18T12:26:00.422Z,15.47
2022-12-18T12:31:21.074Z,15.00
2022-12-18T12:36:23.038Z,16.45
2022-12-18T12:41:47.522Z,15.77
2022-12-18T12:46:52.908Z,16.03
2022-12-18T12:52:04.679Z,15.80
2022-12-18T12:57:34.656Z,15.73
2022-12-18T13:02:46.863Z,15.53
2022-12-18T13:07:59.290Z,15.02
2022-12-18T13:13:04.385Z,14.40
2022-12-18T13:18:10.327Z,15.00
2022-12-18T13:23:24.627Z,14.02
2022-12-18T13:28:46.023Z,14.00
2022-12-18T13:34:24.568Z,14.37
2022-12-18T13:39:23.828Z,13.97
2022-12-18T13:44:41.638Z,16.62
2022-12-18T13:49:45.340Z,13.70
2022-12-18T13:54:56.197Z,13.60
2022-12-18T13:59:59.639Z,13.40
2022-12-18T14:05:01.674Z,14.43
2022-12-18T14:10:26.079Z,19.00
2022-12-18T14:15:26.148Z,15.10
2022-12-18T14:20:30.916Z,15.15
2022-12-18T14:25:34.074Z,15.73
2022-12-18T14:30:39.779Z,15.00
2022-12-18T14:35:44.460Z,14.95
2022-12-18T14:40:46.702Z,16.65
2022-12-18T14:45:50.512Z,15.97
2022-12-18T14:51:14.910Z,16.73
2022-12-18T14:56:26.567Z,16.37
2022-12-18T15:01:36.113Z,16.50
2022-12-18T15:06:41.022Z,17.17
2022-12-18T15:11:42.966Z,16.62
2022-12-18T15:16:46.331Z,16.97
2022-12-18T15:21:48.534Z,18.40
2022-12-18T15:26:50.638Z,18.90
2022-12-18T15:32:01.084Z,19.20
2022-12-18T15:37:03.194Z,18.50
2022-12-18T15:42:28.672Z,18.55
2022-12-18T15:47:30.866Z,16.37
2022-12-18T15:52:41.064Z,17.77
2022-12-18T15:57:43.096Z,15.68
2022-12-18T16:02:45.296Z,16.80
2022-12-18T16:07:47.661Z,16.90
2022-12-18T16:12:49.729Z,16.87
2022-12-18T16:17:52.909Z,16.27
2022-12-18T16:22:55.054Z,15.45
2022-12-18T16:27:57.793Z,16.43
2022-12-18T16:33:00.130Z,17.23
2022-12-18T16:38:02.221Z,17.73
2022-12-18T16:43:04.252Z,17.57
2022-12-18T16:48:06.601Z,16.65
2022-12-18T16:53:08.666Z,18.02
2022-12-18T16:58:11.147Z,17.73
2022-12-18T17:03:13.315Z,18.77
2022-12-18T17:08:15.506Z,17.12
2022-12-18T17:13:21.381Z,17.95
2022-12-18T17:18:26.934Z,17.33
2022-12-18T17:23:30.054Z,17.50
2022-12-18T17:28:32.073Z,17.15
2022-12-18T17:33:34.121Z,17.60
2022-12-18T17:38:36.850Z,17.42
2022-12-18T17:43:47.658Z,16.95
2022-12-18T17:53:52.370Z,17.93
2022-12-18T17:58:54.666Z,16.75
2022-12-18T18:03:56.846Z,18.08
2022-12-18T18:08:58.952Z,18.67
2022-12-18T18:14:01.818Z,17.08
2022-12-18T18:19:06.833Z,18.98
2022-12-18T18:24:10.428Z,16.97
2022-12-18T18:29:21.204Z,17.62
2022-12-18T18:34:26.559Z,16.73
2022-12-18T18:39:29.490Z,18.00
2022-12-18T18:44:31.764Z,18.63
2022-12-18T18:49:34.325Z,19.75
2022-12-18T18:54:36.453Z,18.48
2022-12-18T18:59:38.587Z,20.30
2022-12-18T19:04:42.715Z,20.77
2022-12-18T19:09:51.980Z,22.50
2022-12-18T19:14:54.820Z,23.17
2022-12-18T19:19:56.862Z,24.67
2022-12-18T19:24:58.983Z,25.58
2022-12-18T19:30:01.088Z,27.73
2022-12-18T19:35:03.189Z,28.13
2022-12-18T19:40:12.303Z,29.77
2022-12-18T19:45:14.905Z,28.27
2022-12-18T19:50:17.679Z,28.93
2022-12-18T19:55:19.829Z,28.62
2022-12-18T20:00:22.011Z,28.58
2022-12-18T20:05:25.358Z,29.40
2022-12-18T20:10:27.438Z,27.75
2022-12-18T20:15:29.468Z,29.37
2022-12-18T20:20:31.530Z,29.97
2022-12-18T20:25:33.708Z,32.33
2022-12-18T20:30:35.920Z,31.52
2022-12-18T20:35:38.021Z,31.37
2022-12-18T20:40:43.412Z,31.83
2022-12-18T20:45:45.595Z,30.33
2022-12-18T20:51:06.027Z,26.20
2022-12-18T20:56:21.196Z,27.07
2022-12-18T21:01:25.174Z,27.73
2022-12-18T21:06:27.397Z,27.67
2022-12-18T21:11:50.626Z,28.10
2022-12-18T21:16:52.729Z,30.90
2022-12-18T21:21:56.332Z,31.37
2022-12-18T21:26:58.376Z,28.90
2022-12-18T21:32:02.154Z,28.27
2022-12-18T21:37:04.537Z,29.17
2022-12-18T21:42:25.932Z,28.90
2022-12-18T21:47:28.060Z,29.60
2022-12-18T21:52:32.098Z,30.20
2022-12-18T21:57:34.441Z,31.15
2022-12-18T22:02:36.544Z,29.07
2022-12-18T22:07:38.802Z,29.30
2022-12-18T22:12:44.087Z,32.30
2022-12-18T22:17:47.554Z,32.70
2022-12-18T22:22:51.761Z,30.47
2022-12-18T22:28:12.216Z,31.55
2022-12-18T22:33:14.320Z,31.52
2022-12-18T22:38:17.569Z,28.47
2022-12-18T22:43:19.587Z,28.65
2022-12-18T22:48:21.807Z,30.55
2022-12-18T22:53:24.381Z,28.27
2022-12-18T22:58:26.467Z,28.60
2022-12-18T23:03:28.620Z,27.55
2022-12-18T23:08:30.727Z,29.55
2022-12-18T23:13:34.322Z,28.17
2022-12-18T23:18:37.083Z,27.17
2022-12-18T23:23:39.456Z,26.58
2022-12-18T23:28:41.788Z,23.83
2022-12-18T23:33:45.424Z,23.50
2022-12-18T23:38:49.722Z,22.37
2022-12-18T23:43:53.041Z,21.20
2022-12-18T23:48:55.173Z,20.50
2022-12-18T23:54:00.992Z,21.33
2022-12-18T23:59:03.106Z,20.55
